Time;durP1;ratioP1;P1;durP2;ratioP2;P2;SDS_P1;SDS_P2;PMS_P1;PMS_P2;Temp;Humidity;BMP_temperature;BMP_pressure;BME280_temperature;BME280_humidity;BME280_pressure;Samples;Min_cycle;Max_cycle;Signal;HPM_P1;HPM_P2
2023/10/24 00:01:45;;;;;;;21.40;7.07;;;;;;;18.98;80.43;100761.28;5019976;28;20560;-58
2023/10/24 00:04:12;;;;;;;18.10;6.75;;;;;;;18.89;80.91;100754.75;5024246;28;20467;-58
2023/10/24 00:06:39;;;;;;;18.55;6.18;;;;;;;19.12;80.33;100758.91;5031604;28;20072;-57
2023/10/24 00:09:05;;;;;;;15.60;5.32;;;;;;;19.03;80.54;100764.00;5031826;28;20029;-58
2023/10/24 00:11:33;;;;;;;24.48;7.00;;;;;;;19.15;80.14;100763.78;5029695;28;20026;-59
2023/10/24 00:13:59;;;;;;;22.65;6.57;;;;;;;19.08;79.49;100769.47;5029234;28;20033;-58
2023/10/24 00:16:25;;;;;;;16.85;6.60;;;;;;;19.00;79.70;100772.69;5011559;28;20022;-60
2023/10/24 00:18:52;;;;;;;17.73;6.22;;;;;;;19.00;80.51;100759.13;5011018;28;20168;-60
2023/10/24 00:21:18;;;;;;;19.63;6.35;;;;;;;18.81;81.29;100763.34;5013919;28;20328;-60
2023/10/24 00:23:44;;;;;;;17.20;6.05;;;;;;;18.76;81.95;100757.91;5031311;28;20026;-60
2023/10/24 00:26:11;;;;;;;19.17;6.15;;;;;;;18.67;82.84;100771.97;5031542;28;20028;-60
2023/10/24 00:28:37;;;;;;;21.98;6.63;;;;;;;18.69;82.88;100772.50;5031140;28;20037;-60
2023/10/24 00:31:06;;;;;;;20.75;6.45;;;;;;;18.75;82.74;100784.19;5032091;28;20032;-60
2023/10/24 00:33:32;;;;;;;16.15;5.57;;;;;;;18.75;81.54;100784.19;5031596;28;20037;-60
2023/10/24 00:35:58;;;;;;;14.07;6.10;;;;;;;18.69;81.51;100787.97;5030448;28;20036;-60
2023/10/24 00:38:24;;;;;;;17.73;6.55;;;;;;;18.73;81.50;100783.66;5031400;28;20029;-60
2023/10/24 00:40:50;;;;;;;18.20;6.10;;;;;;;18.60;82.56;100784.91;5026688;28;20108;-60
2023/10/24 00:43:17;;;;;;;15.88;6.15;;;;;;;18.73;82.48;100781.75;5013734;28;20759;-60
2023/10/24 00:45:43;;;;;;;27.55;6.68;;;;;;;18.60;82.01;100778.63;5031387;28;20525;-60
2023/10/24 00:48:10;;;;;;;15.80;5.55;;;;;;;18.41;82.69;100762.78;5031429;28;20038;-60
2023/10/24 00:50:37;;;;;;;19.35;6.05;;;;;;;18.62;82.78;100752.09;5031432;28;20033;-60
2023/10/24 00:53:03;;;;;;;11.48;4.97;;;;;;;18.70;82.10;100766.00;5032170;28;20105;-58
2023/10/24 00:55:31;;;;;;;19.88;6.30;;;;;;;18.52;82.44;100754.75;5031306;28;20026;-60
2023/10/24 00:58:00;;;;;;;16.13;6.03;;;;;;;18.47;83.27;100747.38;5031436;28;20052;-60
2023/10/24 01:00:27;;;;;;;19.42;6.47;;;;;;;18.67;82.81;100746.72;5031786;28;20483;-60
2023/10/24 01:02:54;;;;;;;17.00;5.80;;;;;;;18.68;82.12;100746.47;5031349;28;20040;-60
2023/10/24 01:05:21;;;;;;;20.15;5.95;;;;;;;18.70;82.29;100749.72;5029800;28;20045;-60
2023/10/24 01:07:47;;;;;;;19.85;6.32;;;;;;;18.72;81.90;100742.19;5015197;28;20068;-60
2023/10/24 01:10:13;;;;;;;13.35;5.18;;;;;;;18.69;83.00;100745.41;5031259;28;20018;-60
2023/10/24 01:12:40;;;;;;;12.82;4.70;;;;;;;18.78;81.99;100745.72;5031149;28;20021;-60
2023/10/24 01:15:07;;;;;;;14.85;5.30;;;;;;;18.64;82.82;100756.19;5031121;28;20022;-60
2023/10/24 01:17:33;;;;;;;18.90;6.18;;;;;;;18.67;82.98;100754.84;5030913;28;20494;-60
2023/10/24 01:19:59;;;;;;;17.23;5.82;;;;;;;18.69;82.96;100760.84;5031123;28;20028;-60
2023/10/24 01:22:25;;;;;;;13.48;5.85;;;;;;;18.60;83.21;100763.22;5048702;28;20056;-60
2023/10/24 01:24:53;;;;;;;18.52;6.43;;;;;;;18.40;83.72;100765.78;5051049;28;20415;-60
2023/10/24 01:27:21;;;;;;;14.68;5.80;;;;;;;18.54;83.38;100761.53;5051273;28;20053;-60
2023/10/24 01:29:47;;;;;;;20.10;6.20;;;;;;;18.46;83.77;100756.59;5053264;28;20037;-60
2023/10/24 01:32:13;;;;;;;15.02;5.70;;;;;;;18.48;83.74;100765.28;5054901;28;20021;-60
2023/10/24 01:34:40;;;;;;;17.17;6.90;;;;;;;18.37;83.69;100772.50;5054191;28;20511;-60
2023/10/24 01:37:06;;;;;;;17.40;6.57;;;;;;;18.31;83.41;100773.56;5054753;28;20036;-60
2023/10/24 01:39:32;;;;;;;17.85;5.78;;;;;;;18.07;84.39;100777.69;5036209;28;20030;-60
2023/10/24 01:41:58;;;;;;;15.45;5.80;;;;;;;18.11;84.36;100779.63;5014676;28;20218;-60
2023/10/24 01:44:25;;;;;;;25.40;6.93;;;;;;;18.05;85.73;100780.66;5022628;28;20021;-60
2023/10/24 01:46:51;;;;;;;23.48;7.07;;;;;;;17.90;87.08;100788.63;5033720;28;20033;-60
2023/10/24 01:49:17;;;;;;;16.08;6.10;;;;;;;18.04;86.30;100797.16;5039845;28;20116;-60
2023/10/24 01:51:43;;;;;;;19.10;6.60;;;;;;;17.94;85.61;100806.84;5042292;28;20053;-60
2023/10/24 01:54:10;;;;;;;17.67;6.43;;;;;;;17.87;85.76;100800.78;5053819;28;20021;-60
2023/10/24 01:56:36;;;;;;;21.00;7.05;;;;;;;17.76;85.75;100803.63;5045351;28;20423;-59
2023/10/24 01:59:04;;;;;;;21.73;7.25;;;;;;;17.62;87.30;100812.13;5052018;28;20036;-58
2023/10/24 02:01:30;;;;;;;18.30;5.90;;;;;;;17.55;87.71;100802.59;5044331;28;20360;-58
2023/10/24 02:03:58;;;;;;;19.50;6.80;;;;;;;17.71;87.39;100800.84;5033671;28;20471;-58
2023/10/24 02:06:25;;;;;;;17.20;5.85;;;;;;;17.65;87.38;100798.06;5034035;28;20101;-59
2023/10/24 02:08:51;;;;;;;15.25;6.40;;;;;;;17.59;87.98;100796.38;5033856;28;20063;-60
2023/10/24 02:11:17;;;;;;;19.08;6.35;;;;;;;17.53;87.94;100792.00;5052240;28;20040;-59
2023/10/24 02:13:44;;;;;;;15.77;6.13;;;;;;;17.53;87.85;100783.06;5053321;28;20523;-59
2023/10/24 02:16:10;;;;;;;18.65;6.30;;;;;;;17.42;89.40;100787.53;5053754;28;20057;-59
2023/10/24 02:18:36;;;;;;;22.67;7.30;;;;;;;17.50;88.47;100794.41;5053457;28;20032;-58
2023/10/24 02:21:09;;;;;;;18.08;6.65;;;;;;;17.53;88.69;100786.59;5053509;28;20032;-60
2023/10/24 02:23:39;;;;;;;18.35;7.03;;;;;;;17.41;88.66;100791.31;5053247;28;20047;-58
2023/10/24 02:26:12;;;;;;;13.13;5.70;;;;;;;17.44;88.33;100795.41;5053768;28;20029;-59
2023/10/24 02:28:39;;;;;;;22.48;6.88;;;;;;;17.47;88.40;100795.72;5053221;28;20132;-58
2023/10/24 02:31:05;;;;;;;18.02;6.78;;;;;;;17.35;88.58;100798.56;5053720;28;20033;-59
2023/10/24 02:33:31;;;;;;;21.25;6.40;;;;;;;17.24;89.04;100798.69;5029401;28;20076;-58
2023/10/24 02:36:11;;;;;;;23.77;7.32;;;;;;;17.07;90.09;100802.25;5013665;28;20026;-58
2023/10/24 02:38:37;;;;;;;16.85;6.97;;;;;;;17.34;89.35;100798.81;5013592;28;20089;-58
2023/10/24 02:41:04;;;;;;;18.67;7.22;;;;;;;17.33;89.30;100800.69;5012679;28;20441;-58
2023/10/24 02:43:31;;;;;;;17.92;6.68;;;;;;;17.16;89.96;100799.94;5013354;28;20034;-58
2023/10/24 02:45:58;;;;;;;19.33;7.03;;;;;;;17.10;90.34;100812.59;5013413;28;20026;-58
2023/10/24 02:48:24;;;;;;;20.55;6.18;;;;;;;16.81;92.20;100809.19;5013413;28;20030;-58
2023/10/24 02:50:54;;;;;;;19.45;6.78;;;;;;;16.93;91.67;100798.25;5013220;28;20109;-58
2023/10/24 02:53:21;;;;;;;19.23;7.00;;;;;;;16.88;91.43;100793.63;5013114;28;20061;-58
2023/10/24 02:55:48;;;;;;;21.27;7.80;;;;;;;16.85;91.72;100790.59;5013126;28;20030;-58
2023/10/24 02:58:15;;;;;;;15.52;6.90;;;;;;;16.91;91.57;100795.00;5036066;28;20036;-58
2023/10/24 03:00:42;;;;;;;21.05;7.28;;;;;;;16.75;92.33;100787.72;5052618;28;20043;-59
2023/10/24 03:03:09;;;;;;;22.58;7.10;;;;;;;16.64;93.44;100797.53;5052880;28;20039;-58
2023/10/24 03:05:35;;;;;;;22.15;6.85;;;;;;;16.73;93.17;100784.47;5052890;28;20036;-58
2023/10/24 03:08:02;;;;;;;24.15;7.78;;;;;;;16.68;93.24;100787.06;5053236;28;20071;-57
2023/10/24 03:10:28;;;;;;;23.98;7.85;;;;;;;16.67;93.79;100791.66;5052731;28;20045;-58
2023/10/24 03:12:55;;;;;;;26.65;7.93;;;;;;;16.56;94.75;100789.84;5052332;28;20071;-58
2023/10/24 03:15:22;;;;;;;42.40;9.98;;;;;;;16.40;95.62;100786.09;5052594;28;20025;-58
2023/10/24 03:17:48;;;;;;;28.33;9.10;;;;;;;16.43;95.88;100784.75;5052456;28;20502;-58
2023/10/24 03:20:15;;;;;;;22.35;8.27;;;;;;;16.51;95.67;100795.19;5052617;28;20063;-58
2023/10/24 03:22:41;;;;;;;20.27;7.53;;;;;;;16.57;95.01;100789.59;5052251;28;20021;-58
2023/10/24 03:25:08;;;;;;;19.83;7.53;;;;;;;16.57;95.27;100792.31;5052603;28;20103;-58
2023/10/24 03:27:34;;;;;;;23.45;7.95;;;;;;;16.51;95.36;100797.88;5052431;28;20491;-58
2023/10/24 03:30:00;;;;;;;25.50;8.73;;;;;;;16.49;95.47;100806.25;5051985;28;20406;-58
2023/10/24 03:32:27;;;;;;;21.38;8.02;;;;;;;16.48;95.15;100801.06;5053430;23;20419;-59
2023/10/24 03:34:53;;;;;;;24.48;8.52;;;;;;;16.25;96.09;100807.44;5051552;28;20107;-59
2023/10/24 03:37:20;;;;;;;28.40;9.07;;;;;;;16.29;96.05;100805.91;5052192;28;20029;-59
2023/10/24 03:39:46;;;;;;;31.58;9.13;;;;;;;16.22;96.41;100794.44;5060611;28;20087;-59
2023/10/24 03:42:16;;;;;;;24.70;8.60;;;;;;;16.22;96.02;100789.03;5053644;28;20444;-59
2023/10/24 03:44:42;;;;;;;31.85;9.73;;;;;;;16.21;96.82;100782.81;5071882;28;20442;-59
2023/10/24 03:47:08;;;;;;;32.33;9.68;;;;;;;16.15;96.43;100785.66;5071825;28;20036;-59
2023/10/24 03:49:34;;;;;;;25.90;9.63;;;;;;;16.14;97.25;100773.22;5071664;28;20032;-59
2023/10/24 03:52:02;;;;;;;32.28;9.65;;;;;;;16.19;97.29;100786.81;5071437;28;20032;-59
2023/10/24 03:54:29;;;;;;;37.70;9.70;;;;;;;16.17;97.36;100795.16;5071430;28;20081;-58
2023/10/24 03:56:56;;;;;;;36.85;9.80;;;;;;;16.06;97.36;100794.16;5071879;28;20028;-58
2023/10/24 03:59:22;;;;;;;25.25;9.10;;;;;;;15.99;98.41;100793.50;5072007;28;20032;-58
2023/10/24 04:01:48;;;;;;;23.33;9.00;;;;;;;16.03;98.52;100791.94;5071509;28;20527;-58
2023/10/24 04:04:15;;;;;;;33.00;10.45;;;;;;;16.07;98.40;100795.81;5071480;28;20482;-58
2023/10/24 04:06:41;;;;;;;33.53;9.68;;;;;;;15.96;99.20;100799.38;5071709;28;20028;-58
2023/10/24 04:09:07;;;;;;;31.00;9.55;;;;;;;16.04;98.97;100809.78;5060896;28;20382;-58
2023/10/24 04:11:34;;;;;;;29.70;9.10;;;;;;;16.02;98.63;100816.50;5051504;28;20386;-58
2023/10/24 04:14:00;;;;;;;24.52;8.40;;;;;;;16.04;98.68;100815.19;5051276;28;20533;-58
2023/10/24 04:16:27;;;;;;;27.25;10.05;;;;;;;16.00;99.40;100819.44;5051304;28;20037;-58
2023/10/24 04:18:53;;;;;;;30.38;9.70;;;;;;;15.98;98.87;100828.84;5051504;28;20398;-58
2023/10/24 04:21:19;;;;;;;32.45;9.48;;;;;;;16.00;99.22;100824.84;5051207;28;20072;-58
2023/10/24 04:23:46;;;;;;;29.80;8.70;;;;;;;16.00;99.35;100835.66;5051367;28;20029;-58
2023/10/24 04:26:12;;;;;;;34.05;10.27;;;;;;;16.02;99.41;100843.50;5050804;28;20048;-57
2023/10/24 04:28:39;;;;;;;36.03;10.13;;;;;;;16.07;99.51;100851.69;5051735;28;20474;-58
2023/10/24 04:31:05;;;;;;;27.65;9.80;;;;;;;16.04;99.27;100849.47;5051586;28;20368;-58
2023/10/24 04:33:31;;;;;;;22.55;8.70;;;;;;;16.05;99.19;100848.44;5038766;28;20046;-58
2023/10/24 04:35:57;;;;;;;30.08;9.18;;;;;;;15.98;99.41;100843.16;5031305;28;20025;-58
2023/10/24 04:38:23;;;;;;;36.38;11.40;;;;;;;15.97;99.64;100846.91;5031258;28;20034;-58
2023/10/24 04:40:51;;;;;;;34.28;9.05;;;;;;;16.11;98.46;100847.44;5031341;28;20087;-58
2023/10/24 04:43:18;;;;;;;32.53;9.50;;;;;;;15.96;99.65;100855.25;5046047;28;20119;-58
2023/10/24 04:45:44;;;;;;;28.30;10.20;;;;;;;16.06;98.84;100861.66;5051191;28;20190;-58
2023/10/24 04:48:11;;;;;;;34.03;11.07;;;;;;;15.95;100.00;100869.81;5051120;28;20036;-58
2023/10/24 04:50:38;;;;;;;30.90;8.70;;;;;;;16.08;99.34;100881.13;5050582;28;20047;-58
2023/10/24 04:53:06;;;;;;;35.53;10.40;;;;;;;16.04;99.17;100874.56;5050445;28;20025;-58
2023/10/24 04:55:32;;;;;;;39.20;10.93;;;;;;;15.85;100.00;100867.75;5051004;28;20025;-57
2023/10/24 04:57:59;;;;;;;26.20;9.50;;;;;;;15.77;100.00;100860.84;5051055;28;20131;-57
2023/10/24 05:00:26;;;;;;;32.63;10.05;;;;;;;15.78;100.00;100856.28;5050987;28;20430;-58
2023/10/24 05:02:53;;;;;;;30.90;9.75;;;;;;;15.86;100.00;100865.84;5050786;28;20526;-58
2023/10/24 05:05:19;;;;;;;38.05;10.90;;;;;;;15.84;99.97;100852.59;5054404;28;20056;-58
2023/10/24 05:07:45;;;;;;;35.47;11.38;;;;;;;15.80;100.00;100846.03;5055290;28;20108;-58
2023/10/24 05:10:12;;;;;;;42.30;10.50;;;;;;;15.69;100.00;100850.41;5054792;28;20017;-58
2023/10/24 05:12:38;;;;;;;25.00;9.13;;;;;;;15.76;100.00;100855.66;5054307;28;20027;-58
2023/10/24 05:15:05;;;;;;;29.05;10.52;;;;;;;15.69;100.00;100866.59;5054762;28;20473;-58
2023/10/24 05:17:31;;;;;;;35.05;10.15;;;;;;;15.81;99.80;100870.09;5054673;28;20118;-59
2023/10/24 05:20:03;;;;;;;32.65;10.40;;;;;;;15.87;98.94;100872.88;5054977;28;20021;-59
2023/10/24 05:22:31;;;;;;;30.00;10.25;;;;;;;15.84;99.47;100879.59;5054106;28;20029;-58
2023/10/24 05:24:57;;;;;;;44.45;12.30;;;;;;;15.77;99.93;100890.53;5054623;28;20032;-59
2023/10/24 05:27:25;;;;;;;42.83;11.68;;;;;;;15.71;100.00;100901.44;5054703;28;20021;-58
2023/10/24 05:29:52;;;;;;;34.13;10.65;;;;;;;15.72;100.00;100893.13;5054840;28;20025;-58
2023/10/24 05:32:18;;;;;;;32.05;11.13;;;;;;;15.79;99.96;100893.81;5050531;28;20494;-58
2023/10/24 05:34:45;;;;;;;32.03;10.40;;;;;;;15.67;100.00;100893.03;5014770;28;20030;-58
2023/10/24 05:37:11;;;;;;;34.53;10.68;;;;;;;15.59;100.00;100882.56;5014725;28;20030;-57
2023/10/24 05:39:38;;;;;;;39.78;11.15;;;;;;;15.61;100.00;100876.94;5015027;28;20026;-57
2023/10/24 05:42:04;;;;;;;36.28;11.15;;;;;;;15.52;100.00;100880.00;5042916;28;20040;-57
2023/10/24 05:44:31;;;;;;;34.53;11.05;;;;;;;15.51;100.00;100885.63;5054280;28;20483;-56
2023/10/24 05:46:57;;;;;;;34.60;11.50;;;;;;;15.45;100.00;100891.97;5054333;28;20037;-58
2023/10/24 05:49:24;;;;;;;41.47;11.85;;;;;;;15.57;100.00;100890.06;5054212;28;20025;-58
2023/10/24 05:51:50;;;;;;;36.03;11.48;;;;;;;15.52;100.00;100898.88;5054115;28;20052;-57
2023/10/24 05:54:17;;;;;;;37.13;11.10;;;;;;;15.46;100.00;100894.44;5053774;28;20033;-58
2023/10/24 05:56:43;;;;;;;32.13;10.88;;;;;;;15.44;100.00;100885.78;5054010;28;20031;-58
2023/10/24 05:59:10;;;;;;;39.47;10.73;;;;;;;15.45;100.00;100891.97;5051858;28;20107;-58
2023/10/24 06:01:36;;;;;;;36.35;11.38;;;;;;;15.43;100.00;100892.19;5038207;28;20120;-58
2023/10/24 06:04:02;;;;;;;40.90;11.73;;;;;;;15.45;100.00;100876.63;5053809;28;20025;-58
2023/10/24 06:06:29;;;;;;;30.70;10.85;;;;;;;15.60;100.00;100884.19;5053668;28;20060;-58
2023/10/24 06:08:55;;;;;;;29.50;10.00;;;;;;;15.62;100.00;100886.66;5053836;28;20028;-57
2023/10/24 06:11:21;;;;;;;34.75;11.00;;;;;;;15.54;100.00;100883.25;5053930;28;20048;-57
2023/10/24 06:13:47;;;;;;;39.80;10.95;;;;;;;15.46;100.00;100886.34;5053305;28;20113;-58
2023/10/24 06:16:17;;;;;;;34.47;9.65;;;;;;;15.41;100.00;100882.72;5053612;28;20609;-57
2023/10/24 06:18:44;;;;;;;38.75;10.50;;;;;;;15.42;100.00;100893.25;5053509;28;20029;-58
2023/10/24 06:21:11;;;;;;;28.77;9.85;;;;;;;15.37;100.00;100887.75;5053680;28;20029;-58
2023/10/24 06:23:38;;;;;;;35.83;11.18;;;;;;;15.24;100.00;100890.69;5053169;28;20017;-58
2023/10/24 06:26:10;;;;;;;42.67;10.55;;;;;;;15.32;100.00;100888.47;5053723;28;20033;-58
2023/10/24 06:28:37;;;;;;;35.22;10.43;;;;;;;15.27;100.00;100891.06;5051383;28;20036;-58
2023/10/24 06:31:06;;;;;;;39.75;12.50;;;;;;;15.35;100.00;100894.44;5035506;28;20041;-58
2023/10/24 06:33:33;;;;;;;39.78;10.48;;;;;;;15.26;100.00;100896.66;5038492;28;20053;-58
2023/10/24 06:36:02;;;;;;;30.90;10.82;;;;;;;15.34;100.00;100892.81;5033573;28;20120;-58
2023/10/24 06:38:29;;;;;;;28.10;9.70;;;;;;;15.23;100.00;100883.69;5033402;28;20095;-58
2023/10/24 06:40:56;;;;;;;33.45;11.63;;;;;;;15.21;100.00;100883.91;5033318;28;20021;-58
2023/10/24 06:43:23;;;;;;;39.70;11.95;;;;;;;15.12;100.00;100890.72;5032982;28;20468;-58
2023/10/24 06:45:49;;;;;;;29.10;10.10;;;;;;;15.02;100.00;100899.38;5035094;28;20242;-58
2023/10/24 06:48:15;;;;;;;34.95;9.98;;;;;;;15.07;100.00;100900.56;5052825;28;20025;-58
2023/10/24 06:50:42;;;;;;;30.98;10.27;;;;;;;14.96;100.00;100903.00;5053170;28;20395;-58
2023/10/24 06:53:09;;;;;;;43.10;11.70;;;;;;;15.03;100.00;100901.00;5038637;28;20040;-58
2023/10/24 06:55:36;;;;;;;39.33;11.25;;;;;;;15.07;100.00;100905.94;5032745;28;20044;-58
2023/10/24 06:58:03;;;;;;;40.33;11.85;;;;;;;15.04;100.00;100897.25;5032483;28;20452;-58
2023/10/24 07:00:33;;;;;;;43.80;11.50;;;;;;;15.02;100.00;100899.38;5033427;28;20033;-58
2023/10/24 07:02:59;;;;;;;28.83;10.77;;;;;;;14.98;100.00;100898.19;5032522;28;20407;-58
2023/10/24 07:05:27;;;;;;;34.85;11.25;;;;;;;15.07;100.00;100903.25;5044424;28;20083;-58
2023/10/24 07:07:53;;;;;;;34.85;10.23;;;;;;;15.02;100.00;100909.34;5052478;28;20114;-58
2023/10/24 07:10:20;;;;;;;30.10;10.10;;;;;;;14.92;100.00;100907.22;5049771;28;20418;-58
2023/10/24 07:12:47;;;;;;;25.17;9.38;;;;;;;14.96;100.00;100910.28;5032508;28;20026;-58
2023/10/24 07:15:13;;;;;;;38.35;11.48;;;;;;;14.80;100.00;100917.16;5032714;28;20036;-59
2023/10/24 07:17:39;;;;;;;33.40;10.60;;;;;;;14.92;100.00;100915.31;5032490;28;20105;-58
2023/10/24 07:20:06;;;;;;;38.67;11.48;;;;;;;14.83;100.00;100916.72;5032446;28;20030;-58
2023/10/24 07:22:32;;;;;;;33.70;11.18;;;;;;;14.92;100.00;100918.00;5032314;28;20030;-58
2023/10/24 07:24:59;;;;;;;29.58;10.85;;;;;;;15.04;100.00;100912.59;5032665;28;20026;-58
2023/10/24 07:27:25;;;;;;;41.75;11.10;;;;;;;14.85;100.00;100909.22;5032151;28;20068;-58
2023/10/24 07:29:51;;;;;;;38.55;11.77;;;;;;;14.82;100.00;100911.53;5032338;28;20021;-58
2023/10/24 07:32:17;;;;;;;36.05;12.23;;;;;;;14.74;100.00;100908.13;5031596;28;20162;-58
2023/10/24 07:34:44;;;;;;;31.30;9.68;;;;;;;14.88;100.00;100905.22;5040413;28;20039;-58
2023/10/24 07:37:10;;;;;;;50.30;13.05;;;;;;;14.58;100.00;100900.72;5052136;28;20074;-58
2023/10/24 07:39:37;;;;;;;33.08;10.93;;;;;;;14.70;100.00;100900.75;5052005;28;20056;-58
2023/10/24 07:42:04;;;;;;;35.63;11.32;;;;;;;14.90;100.00;100914.72;5051496;28;20039;-58
2023/10/24 07:44:30;;;;;;;36.72;11.52;;;;;;;14.84;100.00;100915.66;5051748;28;20025;-58
2023/10/24 07:46:56;;;;;;;27.60;9.68;;;;;;;14.83;100.00;100913.19;5051930;28;20466;-58
2023/10/24 07:49:23;;;;;;;33.03;11.68;;;;;;;14.89;100.00;100910.41;5051913;28;20017;-58
2023/10/24 07:51:49;;;;;;;27.95;10.70;;;;;;;14.82;100.00;100919.63;5051963;28;20572;-58
2023/10/24 07:54:15;;;;;;;32.70;10.18;;;;;;;14.77;100.00;100918.47;5051554;28;20028;-59
2023/10/24 07:56:43;;;;;;;43.72;11.75;;;;;;;14.72;100.00;100917.50;5051995;28;20025;-58
2023/10/24 07:59:09;;;;;;;37.22;10.95;;;;;;;14.71;100.00;100913.16;5051255;28;20051;-58
2023/10/24 08:01:36;;;;;;;27.75;9.98;;;;;;;14.64;100.00;100910.56;5051876;28;20486;-58
2023/10/24 08:04:03;;;;;;;33.20;10.77;;;;;;;14.79;100.00;100910.97;5051563;28;20491;-58
2023/10/24 08:06:29;;;;;;;33.80;10.60;;;;;;;14.55;100.00;100908.44;5051916;28;20021;-58
2023/10/24 08:08:55;;;;;;;33.17;11.05;;;;;;;14.64;100.00;100915.13;5051786;28;20057;-58
2023/10/24 08:11:22;;;;;;;28.67;11.07;;;;;;;14.74;100.00;100912.72;5051675;28;20071;-58
2023/10/24 08:13:48;;;;;;;37.00;10.85;;;;;;;14.64;100.00;100907.06;5050572;28;20032;-58
2023/10/24 08:16:14;;;;;;;36.10;10.60;;;;;;;14.57;100.00;100896.38;5051651;28;20031;-58
2023/10/24 08:18:41;;;;;;;36.25;11.55;;;;;;;14.61;100.00;100880.59;5051407;28;20033;-58
2023/10/24 08:21:07;;;;;;;34.80;11.18;;;;;;;14.66;100.00;100884.25;5052074;28;20028;-58
2023/10/24 08:23:33;;;;;;;28.73;10.25;;;;;;;14.73;100.00;100894.91;5051217;28;20028;-58
2023/10/24 08:25:59;;;;;;;39.42;12.50;;;;;;;14.73;100.00;100901.13;5050988;28;20043;-58
2023/10/24 08:28:26;;;;;;;31.70;12.23;;;;;;;14.58;100.00;100897.22;5051202;28;20029;-58
2023/10/24 08:30:52;;;;;;;29.00;9.32;;;;;;;14.60;100.00;100906.69;5051727;28;20029;-58
2023/10/24 08:33:20;;;;;;;26.70;9.75;;;;;;;14.68;100.00;100916.31;5028529;28;20088;-58
2023/10/24 08:35:47;;;;;;;29.17;10.65;;;;;;;14.73;100.00;100927.25;5011600;28;20022;-59
2023/10/24 08:38:13;;;;;;;30.00;9.80;;;;;;;14.67;100.00;100922.78;5011486;28;20032;-58
2023/10/24 08:40:44;;;;;;;36.88;11.30;;;;;;;14.48;100.00;100914.75;5015667;28;20048;-58
2023/10/24 08:43:10;;;;;;;27.70;9.10;;;;;;;14.56;100.00;100915.47;5015696;28;20041;-58
2023/10/24 08:45:37;;;;;;;39.20;11.73;;;;;;;14.65;100.00;100906.81;5015525;28;20026;-58
2023/10/24 08:48:05;;;;;;;30.60;10.90;;;;;;;14.54;100.00;100902.22;5015365;28;20092;-58
2023/10/24 08:50:33;;;;;;;32.03;10.30;;;;;;;14.55;100.00;100903.03;5015613;28;20034;-58
2023/10/24 08:52:59;;;;;;;27.05;9.45;;;;;;;14.45;100.00;100912.50;5015506;28;20026;-58
2023/10/24 08:55:27;;;;;;;28.13;9.93;;;;;;;14.38;100.00;100908.25;5015372;28;20431;-58
2023/10/24 08:57:54;;;;;;;28.00;10.18;;;;;;;14.53;100.00;100905.97;5015441;28;20073;-58
2023/10/24 09:00:20;;;;;;;28.83;10.63;;;;;;;14.57;100.00;100900.97;5033829;28;20422;-58
2023/10/24 09:02:47;;;;;;;34.15;9.90;;;;;;;14.57;100.00;100906.34;5034841;28;20032;-59
2023/10/24 09:05:14;;;;;;;33.92;9.68;;;;;;;14.57;100.00;100900.97;5034931;28;20105;-58
2023/10/24 09:07:41;;;;;;;30.85;11.68;;;;;;;14.37;100.00;100902.03;5034869;28;20029;-58
2023/10/24 09:10:08;;;;;;;36.20;10.93;;;;;;;14.29;100.00;100907.75;5034716;28;20100;-58
2023/10/24 09:12:35;;;;;;;30.52;10.80;;;;;;;14.45;100.00;100912.50;5034786;28;20036;-58
2023/10/24 09:15:01;;;;;;;35.00;10.80;;;;;;;14.38;100.00;100917.16;5034859;28;20029;-58
2023/10/24 09:17:31;;;;;;;35.47;10.05;;;;;;;14.30;100.00;100900.50;5045665;28;20119;-58
2023/10/24 09:19:58;;;;;;;35.70;11.57;;;;;;;14.29;100.00;100898.84;5035658;28;20056;-58
2023/10/24 09:22:28;;;;;;;23.02;9.45;;;;;;;14.31;100.00;100894.88;5045523;28;20033;-58
2023/10/24 09:24:57;;;;;;;34.13;10.68;;;;;;;14.23;100.00;100900.59;5034952;28;20108;-58
2023/10/24 09:27:24;;;;;;;37.13;10.82;;;;;;;14.25;100.00;100899.31;5019542;28;20029;-58
2023/10/24 09:29:50;;;;;;;33.13;11.07;;;;;;;14.24;100.00;100899.53;5014891;28;20488;-59
2023/10/24 09:32:17;;;;;;;38.67;11.65;;;;;;;14.33;100.00;100903.56;5021453;28;20054;-58
2023/10/24 09:34:45;;;;;;;31.90;10.95;;;;;;;14.43;100.00;100911.06;5034496;28;20065;-58
2023/10/24 09:37:13;;;;;;;28.60;10.63;;;;;;;14.18;100.00;100905.84;5034523;28;20116;-58
2023/10/24 09:40:01;;;;;;;30.42;9.65;;;;;;;14.24;100.00;100903.06;5050639;28;20069;-58
2023/10/24 09:42:29;;;;;;;34.97;9.93;;;;;;;14.15;100.00;100903.59;5054114;28;20025;-58
2023/10/24 09:45:01;;;;;;;29.40;9.15;;;;;;;14.13;100.00;100900.31;5054088;28;20021;-58
2023/10/24 09:47:28;;;;;;;20.08;8.85;;;;;;;14.08;100.00;100902.88;5054325;28;20549;-58
2023/10/24 09:49:55;;;;;;;21.17;9.13;;;;;;;14.08;100.00;100905.56;5053894;28;20497;-58
2023/10/24 09:52:24;;;;;;;20.77;8.13;;;;;;;14.04;100.00;100904.38;5053940;28;20021;-58
2023/10/24 09:54:51;;;;;;;25.10;9.30;;;;;;;14.02;100.00;100909.97;5053971;28;20094;-58
2023/10/24 09:57:19;;;;;;;24.52;8.98;;;;;;;14.00;100.00;100909.41;5054066;28;20021;-58
2023/10/24 09:59:51;;;;;;;21.60;8.73;;;;;;;13.95;100.00;100911.94;5053843;28;20036;-58
2023/10/24 10:02:19;;;;;;;27.27;9.98;;;;;;;13.97;100.00;100915.22;5053803;28;20028;-58
2023/10/24 10:04:48;;;;;;;23.40;8.68;;;;;;;13.83;100.00;100919.13;5053805;28;20071;-58
2023/10/24 10:07:16;;;;;;;22.65;9.30;;;;;;;13.79;100.00;100934.91;5053779;28;20017;-58
2023/10/24 10:09:46;;;;;;;23.70;8.60;;;;;;;13.75;100.00;100925.63;5053892;28;20380;-58
2023/10/24 10:12:13;;;;;;;14.90;6.90;;;;;;;13.71;100.00;100932.50;5053597;28;20027;-58
2023/10/24 10:15:23;;;;;;;14.23;6.95;;;;;;;13.73;100.00;100933.94;5053591;28;20055;-58
2023/10/24 10:18:17;;;;;;;22.60;8.77;;;;;;;13.82;100.00;100930.91;5053633;28;20451;-58
2023/10/24 10:21:05;;;;;;;22.30;8.77;;;;;;;13.77;100.00;100928.06;5053423;28;20052;-58
2023/10/24 10:23:45;;;;;;;19.48;8.13;;;;;;;13.67;100.00;100925.94;5053500;28;20040;-58
2023/10/24 10:26:41;;;;;;;17.83;8.45;;;;;;;13.59;100.00;100921.66;5052945;28;20108;-58
2023/10/24 10:29:33;;;;;;;24.73;9.50;;;;;;;13.55;100.00;100922.31;5053569;28;20028;-57
2023/10/24 10:32:33;;;;;;;23.73;9.10;;;;;;;13.54;100.00;100926.06;5052527;28;20535;-58
2023/10/24 10:34:59;;;;;;;19.42;7.93;;;;;;;13.45;100.00;100925.56;5033788;28;20053;-58
2023/10/24 10:37:30;;;;;;;20.13;8.18;;;;;;;13.44;100.00;100922.03;5051893;28;20037;-58
2023/10/24 10:40:27;;;;;;;14.68;7.35;;;;;;;13.46;100.00;100919.13;5052817;28;20031;-58
2023/10/24 10:42:54;;;;;;;32.28;10.65;;;;;;;13.45;100.00;100910.25;5052982;28;20033;-58
2023/10/24 10:45:30;;;;;;;27.00;9.25;;;;;;;13.42;100.00;100916.06;5053419;28;20151;-58
2023/10/24 10:47:59;;;;;;;20.63;9.50;;;;;;;13.44;100.00;100913.97;5051342;28;20498;-58
2023/10/24 10:50:31;;;;;;;25.73;9.57;;;;;;;13.45;100.00;100912.94;5052917;28;20127;-59
2023/10/24 10:53:22;;;;;;;33.72;10.68;;;;;;;13.54;100.00;100905.38;5053170;28;20032;-58
2023/10/24 10:56:11;;;;;;;28.75;10.05;;;;;;;13.63;100.00;100913.97;5033756;28;20029;-58
2023/10/24 10:58:40;;;;;;;33.83;11.27;;;;;;;13.73;100.00;100917.78;5033968;28;20040;-59
2023/10/24 11:01:35;;;;;;;19.42;8.82;;;;;;;13.81;100.00;100929.28;5032397;28;20021;-58
2023/10/24 11:04:02;;;;;;;21.73;8.65;;;;;;;13.79;100.00;100916.06;5002878;28;20132;-58
2023/10/24 11:06:29;;;;;;;23.55;9.90;;;;;;;13.74;100.00;100911.34;5042890;28;20017;-58
2023/10/24 11:09:13;;;;;;;25.40;9.02;;;;;;;13.82;100.00;100909.41;5052967;28;20497;-58
2023/10/24 11:11:39;;;;;;;27.02;10.02;;;;;;;13.85;100.00;100909.78;5052487;28;20028;-57
2023/10/24 11:14:20;;;;;;;30.83;10.43;;;;;;;14.09;100.00;100916.09;5052347;28;20383;-58